createdAt,value
2019-04-22T00:00:57.661Z,0.00
2019-04-22T00:02:02.402Z,0.00
2019-04-22T00:03:01.523Z,0.00
2019-04-22T00:04:03.648Z,0.00
2019-04-22T00:05:07.271Z,0.00
2019-04-22T00:06:19.564Z,0.00
2019-04-22T00:07:24.099Z,0.00
2019-04-22T00:09:24.210Z,0.00
2019-04-22T00:10:29.020Z,0.00
2019-04-22T00:11:27.273Z,0.00
2019-04-22T00:12:27.756Z,0.00
2019-04-22T00:13:26.206Z,0.00
2019-04-22T00:14:14.971Z,0.00
2019-04-22T00:15:18.027Z,0.00
2019-04-22T00:16:27.538Z,0.00
2019-04-22T00:17:30.086Z,0.00
2019-04-22T00:18:25.249Z,0.00
2019-04-22T00:20:23.155Z,0.00
2019-04-22T00:21:26.179Z,0.00
2019-04-22T00:22:22.297Z,0.00
2019-04-22T00:23:20.377Z,0.00
2019-04-22T00:24:17.007Z,0.00
2019-04-22T00:26:23.916Z,0.00
2019-04-22T00:27:28.112Z,0.00
2019-04-22T00:28:24.833Z,0.00
2019-04-22T00:29:46.642Z,0.00
2019-04-22T00:31:21.270Z,0.00
2019-04-22T00:32:19.413Z,0.00
2019-04-22T00:33:24.553Z,0.00
2019-04-22T00:34:21.287Z,0.00
2019-04-22T00:35:19.730Z,0.00
2019-04-22T00:36:23.539Z,0.00
2019-04-22T00:37:23.459Z,0.00
2019-04-22T00:38:23.440Z,0.00
2019-04-22T00:39:21.391Z,0.00
2019-04-22T00:40:23.837Z,0.00
2019-04-22T00:41:25.600Z,0.00
2019-04-22T00:42:22.637Z,0.00
2019-04-22T00:43:19.766Z,0.00
2019-04-22T00:44:25.598Z,0.00
2019-04-22T00:45:31.042Z,0.00
2019-04-22T00:46:19.555Z,0.00
2019-04-22T00:47:23.331Z,0.00
2019-04-22T00:50:00.223Z,0.00
2019-04-22T00:51:25.274Z,0.00
2019-04-22T00:52:21.840Z,0.00
2019-04-22T00:53:22.537Z,0.00
2019-04-22T00:54:23.914Z,0.00
2019-04-22T00:55:23.365Z,0.00
2019-04-22T00:56:17.080Z,0.00
2019-04-22T00:57:21.265Z,0.00
2019-04-22T00:58:29.412Z,0.00
2019-04-22T00:59:17.262Z,0.00
2019-04-22T01:00:19.903Z,0.00
2019-04-22T01:01:19.108Z,0.00
2019-04-22T01:02:22.897Z,0.00
2019-04-22T01:03:32.285Z,0.00
2019-04-22T01:04:31.146Z,0.00
2019-04-22T01:05:22.682Z,0.00
2019-04-22T01:06:20.395Z,0.00
2019-04-22T01:07:17.626Z,0.00
2019-04-22T01:08:25.424Z,0.00
2019-04-22T01:09:17.095Z,0.00
2019-04-22T01:10:20.627Z,0.00
2019-04-22T01:11:22.689Z,0.00
2019-04-22T01:12:24.729Z,0.00
2019-04-22T01:13:22.342Z,0.00
2019-04-22T01:14:21.642Z,0.00
2019-04-22T01:15:23.745Z,0.00
2019-04-22T01:17:19.338Z,0.00
2019-04-22T01:18:15.831Z,0.00
2019-04-22T01:19:26.113Z,0.00
2019-04-22T01:20:40.187Z,0.00
2019-04-22T01:21:24.323Z,0.00
2019-04-22T01:22:18.567Z,0.00
2019-04-22T01:23:19.553Z,0.00
2019-04-22T01:24:15.693Z,0.00
2019-04-22T01:25:17.107Z,0.00
2019-04-22T01:26:09.916Z,0.00
2019-04-22T01:27:11.441Z,0.00
2019-04-22T01:28:10.826Z,0.00
2019-04-22T01:29:09.509Z,0.00
2019-04-22T01:30:07.253Z,0.00
2019-04-22T01:31:02.629Z,0.00
2019-04-22T01:31:54.669Z,0.00
2019-04-22T01:33:03.583Z,0.00
2019-04-22T01:34:09.960Z,0.00
2019-04-22T01:35:08.525Z,0.00
2019-04-22T01:36:13.679Z,0.00
2019-04-22T01:37:13.833Z,0.00
2019-04-22T01:38:07.801Z,0.00
2019-04-22T01:39:16.331Z,0.00
2019-04-22T01:41:25.320Z,0.00
2019-04-22T01:42:18.734Z,0.00
2019-04-22T01:43:24.620Z,0.00
2019-04-22T01:45:17.785Z,0.00
2019-04-22T01:46:25.737Z,0.00
2019-04-22T01:47:18.313Z,0.00
2019-04-22T01:48:19.800Z,0.00
2019-04-22T01:49:21.370Z,0.00
2019-04-22T01:50:23.903Z,0.00
2019-04-22T01:51:22.398Z,0.00
2019-04-22T01:52:17.071Z,0.00
2019-04-22T01:53:24.671Z,0.00
2019-04-22T01:55:29.559Z,0.00
2019-04-22T01:56:24.493Z,0.00
2019-04-22T01:57:20.466Z,0.00
2019-04-22T01:58:10.890Z,0.00
2019-04-22T01:59:12.512Z,0.00
2019-04-22T02:00:11.311Z,0.00
2019-04-22T02:01:22.148Z,0.00
2019-04-22T02:02:19.061Z,0.00
2019-04-22T02:03:23.589Z,0.00
2019-04-22T02:04:30.308Z,0.00
2019-04-22T02:05:17.772Z,0.00
2019-04-22T02:06:23.379Z,0.00
2019-04-22T02:07:23.573Z,0.00
2019-04-22T02:08:23.395Z,0.00
2019-04-22T02:09:28.813Z,0.00
2019-04-22T02:10:20.002Z,0.00
2019-04-22T02:11:29.368Z,0.00
2019-04-22T02:12:19.592Z,0.00
2019-04-22T02:13:25.148Z,0.00
2019-04-22T02:14:20.683Z,0.00
2019-04-22T02:15:21.043Z,0.00
2019-04-22T02:16:23.235Z,0.00
2019-04-22T02:18:29.362Z,0.00
2019-04-22T02:19:22.877Z,0.00
2019-04-22T02:20:19.768Z,0.00
2019-04-22T02:21:15.279Z,0.00
2019-04-22T02:22:38.593Z,0.00
2019-04-22T02:23:42.909Z,0.00
2019-04-22T02:24:20.125Z,0.00
2019-04-22T02:25:24.568Z,0.00
2019-04-22T02:26:35.459Z,0.00
2019-04-22T02:27:29.329Z,0.00
2019-04-22T02:28:28.064Z,0.00
2019-04-22T02:29:26.357Z,0.00
2019-04-22T02:30:30.065Z,0.00
2019-04-22T02:32:39.293Z,0.00
2019-04-22T02:33:51.358Z,0.00
2019-04-22T02:34:22.230Z,0.00
2019-04-22T02:35:41.084Z,0.00
2019-04-22T02:38:35.672Z,0.00
2019-04-22T02:39:20.252Z,0.00
2019-04-22T02:41:37.429Z,0.00
2019-04-22T02:42:19.579Z,0.00
2019-04-22T02:43:34.111Z,0.00
2019-04-22T02:44:20.307Z,0.00
2019-04-22T02:45:30.546Z,0.00
2019-04-22T02:48:35.782Z,0.00
2019-04-22T02:49:25.046Z,0.00
2019-04-22T02:50:19.754Z,0.00
2019-04-22T02:51:21.996Z,0.00
2019-04-22T02:52:28.916Z,0.00
2019-04-22T02:53:58.418Z,0.00
2019-04-22T02:57:33.742Z,0.00
2019-04-22T02:58:35.348Z,0.00
2019-04-22T03:00:38.978Z,0.00
2019-04-22T03:01:43.138Z,0.00
2019-04-22T03:02:28.522Z,0.00
2019-04-22T03:03:31.407Z,0.00
2019-04-22T03:04:20.691Z,0.00
2019-04-22T03:05:33.193Z,0.00
2019-04-22T03:07:18.718Z,0.00
2019-04-22T03:08:25.562Z,0.00
2019-04-22T03:09:25.727Z,0.00
2019-04-22T03:10:29.541Z,0.00
2019-04-22T03:12:26.921Z,0.00
2019-04-22T03:13:30.773Z,0.00
2019-04-22T03:14:33.812Z,0.00
2019-04-22T03:15:20.398Z,0.00
2019-04-22T03:17:25.161Z,4.00
2019-04-22T03:18:33.542Z,4.00
2019-04-22T03:20:14.178Z,0.00
2019-04-22T03:21:22.059Z,4.00
2019-04-22T03:23:45.908Z,4.00
2019-04-22T03:28:31.008Z,8.00
2019-04-22T03:29:18.150Z,8.00
2019-04-22T03:30:47.645Z,12.00
2019-04-22T03:33:43.452Z,16.00
2019-04-22T03:37:00.398Z,28.00
2019-04-22T03:38:20.213Z,36.00
2019-04-22T03:40:34.676Z,52.00
2019-04-22T03:41:39.317Z,60.00
2019-04-22T03:42:41.547Z,68.00
2019-04-22T03:43:28.151Z,76.00
2019-04-22T03:44:35.874Z,92.00
2019-04-22T03:45:26.677Z,104.00
2019-04-22T03:46:22.234Z,116.00
2019-04-22T03:48:27.061Z,148.00
2019-04-22T03:50:25.931Z,184.00
2019-04-22T03:51:38.443Z,208.00
2019-04-22T03:53:36.259Z,252.00
2019-04-22T03:54:29.091Z,276.00
2019-04-22T03:55:26.686Z,304.00
2019-04-22T03:56:59.200Z,328.00
2019-04-22T03:57:44.631Z,356.00
2019-04-22T03:58:10.645Z,388.00
2019-04-22T03:59:29.549Z,420.00
2019-04-22T04:00:32.568Z,456.00
2019-04-22T04:01:34.249Z,492.00
2019-04-22T04:04:25.978Z,612.00
2019-04-22T04:05:33.119Z,660.00
2019-04-22T04:06:36.224Z,700.00
2019-04-22T04:07:37.120Z,748.00
2019-04-22T04:08:30.622Z,792.00
2019-04-22T04:09:31.074Z,840.00
2019-04-22T04:10:32.257Z,888.00
2019-04-22T04:11:25.172Z,936.00
2019-04-22T04:12:25.997Z,984.00
2019-04-22T04:13:34.149Z,1036.00
2019-04-22T04:14:37.884Z,1088.00
2019-04-22T04:16:21.705Z,1204.00
2019-04-22T04:17:20.288Z,1264.00
2019-04-22T04:18:22.916Z,1324.00
2019-04-22T04:22:30.736Z,1516.00
2019-04-22T04:26:33.597Z,1832.00
2019-04-22T04:27:43.661Z,1944.00
2019-04-22T04:29:36.071Z,2108.00
2019-04-22T04:34:28.297Z,2272.00
2019-04-22T04:35:44.206Z,2284.00
2019-04-22T04:36:32.223Z,2320.00
2019-04-22T04:37:40.691Z,2360.00
2019-04-22T04:38:29.731Z,2388.00
2019-04-22T04:41:26.793Z,2520.00
2019-04-22T04:43:15.984Z,2624.00
2019-04-22T04:44:23.395Z,2720.00
2019-04-22T04:45:34.699Z,2788.00
2019-04-22T04:46:43.425Z,2824.00
2019-04-22T04:47:39.228Z,2852.00
2019-04-22T04:48:20.933Z,2884.00
2019-04-22T04:51:28.717Z,3032.00
2019-04-22T04:52:33.208Z,3020.00
2019-04-22T04:53:20.312Z,2948.00
2019-04-22T04:55:24.025Z,2820.00
2019-04-22T04:56:38.463Z,2844.00
2019-04-22T04:57:23.941Z,2868.00
2019-04-22T04:58:35.117Z,2896.00
2019-04-22T04:59:28.156Z,2928.00
2019-04-22T05:01:23.208Z,2980.00
2019-04-22T05:03:30.391Z,3024.00
2019-04-22T05:05:20.633Z,3076.00
2019-04-22T05:06:22.257Z,3100.00
2019-04-22T05:08:28.941Z,3160.00
2019-04-22T05:11:24.767Z,3224.00
2019-04-22T05:12:45.359Z,3240.00
2019-04-22T05:13:40.012Z,3264.00
2019-04-22T05:14:23.227Z,3280.00
2019-04-22T05:15:18.508Z,3300.00
2019-04-22T05:17:18.362Z,3336.00
2019-04-22T05:20:29.560Z,3384.00
2019-04-22T05:22:14.820Z,3424.00
2019-04-22T05:23:22.179Z,3444.00
2019-04-22T05:24:19.910Z,3456.00
2019-04-22T05:26:22.121Z,3484.00
2019-04-22T05:27:20.277Z,3496.00
2019-04-22T05:28:11.810Z,3512.00
2019-04-22T05:29:32.189Z,3528.00
2019-04-22T05:30:23.770Z,3544.00
2019-04-22T05:31:16.181Z,3556.00
2019-04-22T05:32:22.896Z,3568.00
2019-04-22T05:33:08.732Z,3588.00
2019-04-22T05:34:19.350Z,3608.00
2019-04-22T05:35:20.642Z,3628.00
2019-04-22T05:36:12.727Z,3652.00
2019-04-22T05:37:14.757Z,3616.00
2019-04-22T05:39:12.447Z,3644.00
2019-04-22T05:41:08.834Z,3692.00
2019-04-22T05:42:16.493Z,3712.00
2019-04-22T05:43:07.806Z,3728.00
2019-04-22T05:46:09.546Z,3784.00
2019-04-22T05:47:15.202Z,3792.00
2019-04-22T05:48:09.431Z,3800.00
2019-04-22T05:49:23.516Z,3808.00
2019-04-22T05:50:10.842Z,3812.00
2019-04-22T05:51:12.865Z,3820.00
2019-04-22T05:52:09.659Z,3828.00
2019-04-22T05:53:07.206Z,3836.00
2019-04-22T05:54:17.260Z,3852.00
2019-04-22T05:55:16.696Z,3868.00
2019-04-22T05:56:20.729Z,3884.00
2019-04-22T05:57:14.388Z,3892.00
2019-04-22T05:58:08.995Z,3920.00
2019-04-22T05:59:11.691Z,3916.00
2019-04-22T06:00:18.352Z,3920.00
2019-04-22T06:02:23.835Z,3932.00
2019-04-22T06:03:12.377Z,3936.00
2019-04-22T06:04:11.511Z,3928.00
2019-04-22T06:05:14.633Z,3932.00
2019-04-22T06:06:13.706Z,3932.00
2019-04-22T06:07:10.737Z,3936.00
2019-04-22T06:08:11.829Z,3940.00
2019-04-22T06:09:10.708Z,3956.00
2019-04-22T06:10:26.286Z,3964.00
2019-04-22T06:11:17.157Z,3964.00
2019-04-22T06:12:10.334Z,3960.00
2019-04-22T06:13:06.881Z,3968.00
2019-04-22T06:14:07.873Z,3972.00
2019-04-22T06:15:12.104Z,3976.00
2019-04-22T06:16:12.450Z,3980.00
2019-04-22T06:17:12.385Z,3984.00
2019-04-22T06:18:16.067Z,3988.00
2019-04-22T06:19:13.725Z,3984.00
2019-04-22T06:20:09.429Z,3992.00
2019-04-22T06:21:11.220Z,3988.00
2019-04-22T06:22:17.466Z,3992.00
2019-04-22T06:23:12.880Z,3996.00
2019-04-22T06:24:18.724Z,4004.00
2019-04-22T06:27:15.848Z,3964.00
2019-04-22T06:28:26.758Z,3956.00
2019-04-22T06:30:17.553Z,3960.00
2019-04-22T06:31:16.130Z,3952.00
2019-04-22T06:33:15.176Z,3976.00
2019-04-22T06:35:16.694Z,3996.00
2019-04-22T06:36:08.137Z,4008.00
2019-04-22T06:37:13.441Z,4020.00
2019-04-22T06:38:26.858Z,4028.00
2019-04-22T06:39:19.043Z,4036.00
2019-04-22T06:40:16.387Z,4040.00
2019-04-22T06:41:14.004Z,4032.00
2019-04-22T06:43:23.628Z,4032.00
2019-04-22T06:45:11.788Z,4032.00
2019-04-22T06:46:14.418Z,4032.00
2019-04-22T06:47:42.665Z,4032.00
2019-04-22T06:48:13.143Z,4032.00
2019-04-22T06:49:11.199Z,4028.00
2019-04-22T06:50:16.916Z,4024.00
2019-04-22T06:51:09.383Z,4024.00
2019-04-22T06:52:16.243Z,4020.00
2019-04-22T06:53:09.228Z,4036.00
2019-04-22T06:54:07.796Z,4052.00
2019-04-22T06:55:16.520Z,4072.00
2019-04-22T06:56:14.349Z,4100.00
2019-04-22T06:57:06.122Z,4112.00
2019-04-22T06:58:10.613Z,4120.00
2019-04-22T06:59:14.755Z,4132.00
2019-04-22T07:00:14.352Z,4136.00
2019-04-22T07:01:09.755Z,4136.00
2019-04-22T07:02:11.155Z,4136.00
2019-04-22T07:04:14.113Z,4144.00
2019-04-22T07:05:08.387Z,4152.00
2019-04-22T07:06:13.015Z,4160.00
2019-04-22T07:07:06.464Z,4176.00
2019-04-22T07:08:30.363Z,4176.00
2019-04-22T07:10:19.808Z,4188.00
2019-04-22T07:11:04.503Z,4188.00
2019-04-22T07:12:11.528Z,4204.00
2019-04-22T07:13:10.735Z,4212.00
2019-04-22T07:14:07.180Z,4220.00
2019-04-22T07:15:11.027Z,4224.00
2019-04-22T07:16:04.018Z,4228.00
2019-04-22T07:17:10.218Z,4228.00
2019-04-22T07:18:13.243Z,4236.00
2019-04-22T07:19:09.270Z,4236.00
2019-04-22T07:20:11.289Z,4244.00
2019-04-22T07:21:06.361Z,4252.00
2019-04-22T07:22:11.116Z,4268.00
2019-04-22T07:23:15.498Z,4272.00
2019-04-22T07:25:03.142Z,4272.00
2019-04-22T07:26:07.626Z,4264.00
2019-04-22T07:27:12.378Z,4272.00
2019-04-22T07:28:14.265Z,4280.00
2019-04-22T07:29:09.045Z,4288.00
2019-04-22T07:31:12.974Z,4288.00
2019-04-22T07:32:06.798Z,4296.00
2019-04-22T07:33:27.705Z,4288.00
2019-04-22T07:34:14.537Z,4288.00
2019-04-22T07:37:19.737Z,4296.00
2019-04-22T07:38:14.349Z,4300.00
2019-04-22T07:39:10.551Z,4300.00
2019-04-22T07:40:10.195Z,4304.00
2019-04-22T07:41:05.369Z,4312.00
2019-04-22T07:42:17.136Z,4316.00
2019-04-22T07:43:11.936Z,4324.00
2019-04-22T07:45:10.174Z,4308.00
2019-04-22T07:46:11.321Z,4304.00
2019-04-22T07:47:16.955Z,4304.00
2019-04-22T07:48:22.531Z,4300.00
2019-04-22T07:49:14.755Z,4304.00
2019-04-22T07:50:22.817Z,4308.00
2019-04-22T07:51:11.665Z,4312.00
2019-04-22T07:52:10.035Z,4308.00
2019-04-22T07:53:04.816Z,4312.00
2019-04-22T07:54:07.583Z,4332.00
2019-04-22T07:55:02.694Z,4340.00
2019-04-22T07:56:05.314Z,4348.00
2019-04-22T07:57:15.373Z,4344.00
2019-04-22T07:58:16.923Z,4344.00
2019-04-22T07:59:13.914Z,4340.00
2019-04-22T08:00:10.949Z,4356.00
2019-04-22T08:01:10.165Z,4352.00
2019-04-22T08:02:09.812Z,4344.00
2019-04-22T08:03:14.799Z,4336.00
2019-04-22T08:04:16.163Z,4320.00
2019-04-22T08:05:12.781Z,4328.00
2019-04-22T08:06:11.727Z,4344.00
2019-04-22T08:08:13.169Z,4344.00
2019-04-22T08:09:13.978Z,4352.00
2019-04-22T08:10:17.202Z,4344.00
2019-04-22T08:11:26.577Z,4336.00
2019-04-22T08:12:02.525Z,4352.00
2019-04-22T08:13:05.422Z,4356.00
2019-04-22T08:14:10.504Z,4344.00
2019-04-22T08:15:06.065Z,4348.00
2019-04-22T08:16:26.337Z,4356.00
2019-04-22T08:17:31.089Z,4344.00
2019-04-22T08:18:34.385Z,4328.00
2019-04-22T08:19:14.166Z,4340.00
2019-04-22T08:20:10.781Z,4356.00
2019-04-22T08:21:07.566Z,4356.00
2019-04-22T08:22:10.406Z,4372.00
2019-04-22T08:23:09.382Z,4376.00
2019-04-22T08:24:07.893Z,4372.00
2019-04-22T08:25:06.889Z,4376.00
2019-04-22T08:26:05.362Z,4372.00
2019-04-22T08:27:11.455Z,4368.00
2019-04-22T08:28:10.181Z,4356.00
2019-04-22T08:29:05.649Z,4356.00
2019-04-22T08:31:10.714Z,4360.00
2019-04-22T08:32:05.013Z,4360.00
2019-04-22T08:33:09.830Z,4352.00
2019-04-22T08:34:08.208Z,4348.00
2019-04-22T08:35:04.575Z,4348.00
2019-04-22T08:37:37.445Z,4356.00
2019-04-22T08:38:09.633Z,4352.00
2019-04-22T08:39:07.972Z,4360.00
2019-04-22T08:40:17.839Z,4344.00
2019-04-22T08:41:06.635Z,4332.00
2019-04-22T08:42:16.418Z,4324.00
2019-04-22T08:43:16.435Z,4328.00
2019-04-22T08:44:13.378Z,4332.00
2019-04-22T08:46:09.127Z,4304.00
2019-04-22T08:47:17.333Z,4304.00
2019-04-22T08:48:01.663Z,4296.00
2019-04-22T08:49:16.495Z,4304.00
2019-04-22T08:50:07.798Z,4312.00
2019-04-22T08:51:09.525Z,4320.00
2019-04-22T08:52:13.779Z,4316.00
2019-04-22T08:53:10.342Z,4316.00
2019-04-22T08:54:05.677Z,4316.00
2019-04-22T08:56:21.899Z,4312.00
2019-04-22T08:57:26.072Z,4312.00
2019-04-22T08:58:20.342Z,4316.00
2019-04-22T08:59:09.809Z,4320.00
2019-04-22T09:00:07.165Z,4316.00
2019-04-22T09:02:06.298Z,4320.00
2019-04-22T09:03:04.415Z,4320.00
2019-04-22T09:04:07.180Z,4308.00
2019-04-22T09:05:11.963Z,4296.00
2019-04-22T09:06:12.482Z,4292.00
2019-04-22T09:08:07.479Z,4296.00
2019-04-22T09:09:07.646Z,4308.00
2019-04-22T09:10:08.672Z,4304.00
2019-04-22T09:11:04.656Z,4276.00
2019-04-22T09:12:08.214Z,4268.00
2019-04-22T09:13:07.656Z,4280.00
2019-04-22T09:14:26.795Z,4280.00
2019-04-22T09:15:08.551Z,4260.00
2019-04-22T09:16:07.683Z,4240.00
2019-04-22T09:17:11.412Z,4232.00
2019-04-22T09:18:09.908Z,4208.00
2019-04-22T09:19:05.725Z,4188.00
2019-04-22T09:20:06.740Z,4188.00
2019-04-22T09:21:15.415Z,4192.00
2019-04-22T09:22:05.058Z,4196.00
2019-04-22T09:23:07.602Z,4196.00
2019-04-22T09:24:10.521Z,4188.00
2019-04-22T09:25:03.142Z,4192.00
2019-04-22T09:26:09.533Z,4204.00
2019-04-22T09:27:15.887Z,4192.00
2019-04-22T09:28:01.841Z,4192.00
2019-04-22T09:29:05.184Z,4200.00
2019-04-22T09:30:06.088Z,4204.00
2019-04-22T09:31:06.597Z,4212.00
2019-04-22T09:32:14.862Z,4220.00
2019-04-22T09:33:09.866Z,4220.00
2019-04-22T09:34:01.521Z,4216.00
2019-04-22T09:35:03.022Z,4204.00
2019-04-22T09:36:09.421Z,4180.00
2019-04-22T09:37:11.918Z,4172.00
2019-04-22T09:38:19.013Z,4156.00
2019-04-22T09:39:00.650Z,4152.00
2019-04-22T09:41:10.413Z,4136.00
2019-04-22T09:42:05.165Z,4116.00
2019-04-22T09:43:02.529Z,4116.00
2019-04-22T09:44:02.933Z,4108.00
2019-04-22T09:45:06.034Z,4096.00
2019-04-22T09:46:21.597Z,4080.00
2019-04-22T09:47:07.352Z,4068.00
2019-04-22T09:48:08.388Z,4048.00
2019-04-22T09:49:06.793Z,4052.00
2019-04-22T09:51:03.689Z,4072.00
2019-04-22T09:52:08.532Z,4072.00
2019-04-22T09:53:08.689Z,4068.00
2019-04-22T09:54:05.943Z,4060.00
2019-04-22T09:55:10.931Z,4060.00
2019-04-22T09:56:03.817Z,4064.00
2019-04-22T09:57:01.589Z,4080.00
2019-04-22T09:58:02.792Z,4076.00
2019-04-22T09:59:03.945Z,4064.00
2019-04-22T10:01:12.871Z,4056.00
2019-04-22T10:02:19.743Z,4052.00
2019-04-22T10:03:07.129Z,4060.00
2019-04-22T10:04:06.899Z,4052.00
2019-04-22T10:05:06.391Z,4060.00
2019-04-22T10:06:11.876Z,4064.00
2019-04-22T10:06:59.729Z,4064.00
2019-04-22T10:08:14.606Z,4068.00
2019-04-22T10:09:27.417Z,4076.00
2019-04-22T10:10:09.954Z,4072.00
2019-04-22T10:11:04.553Z,4068.00
2019-04-22T10:12:02.175Z,4068.00
2019-04-22T10:13:10.403Z,4068.00
2019-04-22T10:14:05.670Z,4060.00
2019-04-22T10:15:00.181Z,4064.00
2019-04-22T10:16:07.664Z,4060.00
2019-04-22T10:16:59.986Z,4068.00
2019-04-22T10:18:04.813Z,4084.00
2019-04-22T10:19:04.626Z,4096.00
2019-04-22T10:20:01.048Z,4092.00
2019-04-22T10:21:08.416Z,4096.00
2019-04-22T10:22:05.254Z,4092.00
2019-04-22T10:23:05.930Z,4084.00
2019-04-22T10:24:04.752Z,4072.00
2019-04-22T10:25:08.163Z,4076.00
2019-04-22T10:26:04.964Z,4072.00
2019-04-22T10:27:02.060Z,4076.00
2019-04-22T10:28:08.830Z,4088.00
2019-04-22T10:29:05.958Z,4088.00
2019-04-22T10:31:00.389Z,4084.00
2019-04-22T10:32:05.611Z,4080.00
2019-04-22T10:32:59.181Z,4076.00
2019-04-22T10:33:53.281Z,4080.00
2019-04-22T10:34:44.531Z,4080.00
2019-04-22T10:35:39.354Z,4080.00
2019-04-22T10:36:37.936Z,4068.00
2019-04-22T10:37:38.654Z,4072.00
2019-04-22T10:38:37.632Z,4064.00
2019-04-22T10:39:45.910Z,4064.00
2019-04-22T10:40:38.739Z,4084.00
2019-04-22T10:41:38.745Z,4088.00
2019-04-22T10:42:38.597Z,4084.00
2019-04-22T10:43:37.473Z,4072.00
2019-04-22T10:44:37.447Z,4076.00
2019-04-22T10:45:37.723Z,4080.00
2019-04-22T10:46:37.950Z,4076.00
2019-04-22T10:47:38.261Z,4076.00
2019-04-22T10:48:37.341Z,4080.00
2019-04-22T10:49:38.325Z,4076.00
2019-04-22T10:50:38.079Z,4072.00
2019-04-22T10:51:37.293Z,4072.00
2019-04-22T10:52:37.282Z,4072.00
2019-04-22T10:53:37.568Z,4076.00
2019-04-22T10:54:37.676Z,4076.00
2019-04-22T10:55:38.051Z,4076.00
2019-04-22T10:56:37.158Z,4072.00
2019-04-22T10:57:37.098Z,4068.00
2019-04-22T10:58:38.321Z,4068.00
2019-04-22T10:59:38.226Z,4080.00
2019-04-22T11:00:37.657Z,4080.00
2019-04-22T11:01:38.494Z,4080.00
2019-04-22T11:02:37.254Z,4084.00
2019-04-22T11:03:37.326Z,4084.00
2019-04-22T11:04:38.452Z,4088.00
2019-04-22T11:05:37.950Z,4092.00
2019-04-22T11:06:40.914Z,4088.00
2019-04-22T11:07:44.380Z,4088.00
2019-04-22T11:08:45.868Z,4104.00
2019-04-22T11:09:49.358Z,4096.00
2019-04-22T11:10:51.948Z,4100.00
2019-04-22T11:11:46.595Z,4104.00
2019-04-22T11:12:37.999Z,4108.00
2019-04-22T11:13:37.893Z,4112.00
2019-04-22T11:14:37.800Z,4128.00
2019-04-22T11:15:37.102Z,4136.00
2019-04-22T11:16:37.279Z,4140.00
2019-04-22T11:17:37.665Z,4140.00
2019-04-22T11:18:37.833Z,4144.00
2019-04-22T11:19:37.342Z,4152.00
2019-04-22T11:20:37.782Z,4148.00
2019-04-22T11:21:37.742Z,4152.00
2019-04-22T11:22:37.314Z,4160.00
2019-04-22T11:23:36.541Z,4172.00
2019-04-22T11:24:37.024Z,4172.00
2019-04-22T11:25:36.365Z,4168.00
2019-04-22T11:26:36.877Z,4172.00
2019-04-22T11:27:37.094Z,4176.00
2019-04-22T11:28:37.915Z,4180.00
2019-04-22T11:29:37.465Z,4180.00
2019-04-22T11:30:36.676Z,4180.00
2019-04-22T11:31:36.579Z,4188.00
2019-04-22T11:32:36.314Z,4184.00
2019-04-22T11:33:36.452Z,4180.00
2019-04-22T11:34:37.480Z,4176.00
2019-04-22T11:35:37.224Z,4176.00
2019-04-22T11:36:37.052Z,4176.00
2019-04-22T11:37:36.771Z,4188.00
2019-04-22T11:38:38.912Z,4192.00
2019-04-22T11:39:36.689Z,4204.00
2019-04-22T11:40:40.588Z,4196.00
2019-04-22T11:41:36.221Z,4200.00
2019-04-22T11:42:36.374Z,4208.00
2019-04-22T11:43:36.253Z,4220.00
2019-04-22T11:44:37.116Z,4224.00
2019-04-22T11:45:37.089Z,4228.00
2019-04-22T11:46:35.820Z,4228.00
2019-04-22T11:47:37.249Z,4224.00
2019-04-22T11:48:35.968Z,4224.00
2019-04-22T11:49:36.189Z,4232.00
2019-04-22T11:50:35.878Z,4240.00
2019-04-22T11:51:35.987Z,4248.00
2019-04-22T11:52:37.139Z,4260.00
2019-04-22T11:53:36.619Z,4272.00
2019-04-22T11:54:36.799Z,4280.00
2019-04-22T11:55:36.911Z,4292.00
2019-04-22T11:56:36.727Z,4300.00
2019-04-22T11:57:37.024Z,4312.00
2019-04-22T11:58:37.005Z,4296.00
2019-04-22T11:59:36.410Z,4308.00
2019-04-22T12:00:36.780Z,4304.00
2019-04-22T12:01:37.001Z,4308.00
2019-04-22T12:02:36.626Z,4320.00
2019-04-22T12:03:35.777Z,4328.00
2019-04-22T12:04:35.900Z,4336.00
2019-04-22T12:05:35.331Z,4344.00
2019-04-22T12:06:36.020Z,4368.00
2019-04-22T12:07:36.692Z,4388.00
2019-04-22T12:08:35.745Z,4392.00
2019-04-22T12:09:35.377Z,4404.00
2019-04-22T12:10:42.687Z,4404.00
2019-04-22T12:11:36.463Z,4420.00
2019-04-22T12:12:36.301Z,4420.00
2019-04-22T12:13:35.819Z,4432.00
2019-04-22T12:14:36.213Z,4440.00
2019-04-22T12:15:35.293Z,4440.00
2019-04-22T12:16:35.198Z,4444.00
2019-04-22T12:17:36.159Z,4456.00
2019-04-22T12:18:35.404Z,4464.00
2019-04-22T12:19:35.250Z,4472.00
2019-04-22T12:20:35.116Z,4472.00
2019-04-22T12:21:35.239Z,4476.00
2019-04-22T12:22:35.778Z,4480.00
2019-04-22T12:23:35.009Z,4488.00
2019-04-22T12:24:36.277Z,4496.00
2019-04-22T12:25:47.639Z,4504.00
2019-04-22T12:26:34.792Z,4516.00
2019-04-22T12:27:35.035Z,4528.00
2019-04-22T12:28:35.135Z,4536.00
2019-04-22T12:29:35.153Z,4536.00
2019-04-22T12:30:35.256Z,4536.00
2019-04-22T12:31:35.728Z,4560.00
2019-04-22T12:32:35.731Z,4556.00
2019-04-22T12:33:35.056Z,4568.00
2019-04-22T12:34:35.380Z,4580.00
2019-04-22T12:35:34.688Z,4588.00
2019-04-22T12:36:34.537Z,4592.00
2019-04-22T12:37:43.935Z,4600.00
2019-04-22T12:38:35.695Z,4616.00
2019-04-22T12:39:35.702Z,4632.00
2019-04-22T12:40:42.422Z,4644.00
2019-04-22T12:41:35.680Z,4660.00
2019-04-22T12:42:35.371Z,4660.00
2019-04-22T12:43:35.463Z,4652.00
2019-04-22T12:44:37.388Z,4660.00
2019-04-22T12:45:34.303Z,4656.00
2019-04-22T12:46:34.282Z,4652.00
2019-04-22T12:47:35.721Z,4660.00
2019-04-22T12:48:35.097Z,4680.00
2019-04-22T12:49:38.390Z,4692.00
2019-04-22T12:50:38.725Z,4704.00
2019-04-22T12:51:34.149Z,4708.00
2019-04-22T12:52:43.627Z,4716.00
2019-04-22T12:53:34.113Z,4728.00
2019-04-22T12:54:35.145Z,4736.00
2019-04-22T12:55:34.408Z,4740.00
2019-04-22T12:56:35.358Z,4736.00
2019-04-22T12:57:34.736Z,4744.00
2019-04-22T12:58:34.069Z,4756.00
2019-04-22T12:59:35.257Z,4760.00
2019-04-22T13:00:34.335Z,4772.00
2019-04-22T13:01:35.097Z,4788.00
2019-04-22T13:02:34.502Z,4804.00
2019-04-22T13:03:34.143Z,4820.00
2019-04-22T13:04:34.270Z,4840.00
2019-04-22T13:05:35.023Z,4844.00
2019-04-22T13:06:33.798Z,4836.00
2019-04-22T13:07:33.783Z,4836.00
2019-04-22T13:08:33.999Z,4816.00
2019-04-22T13:09:33.720Z,4800.00
2019-04-22T13:10:45.416Z,4800.00
2019-04-22T13:11:36.421Z,4804.00
2019-04-22T13:12:34.708Z,4816.00
2019-04-22T13:13:34.611Z,4836.00
2019-04-22T13:14:34.800Z,4844.00
2019-04-22T13:15:34.983Z,4876.00
2019-04-22T13:16:33.519Z,4884.00
2019-04-22T13:17:33.496Z,4908.00
2019-04-22T13:18:40.318Z,4908.00
2019-04-22T13:19:33.958Z,4892.00
2019-04-22T13:20:34.532Z,4888.00
2019-04-22T13:21:33.394Z,4892.00
2019-04-22T13:22:34.851Z,4900.00
2019-04-22T13:23:34.045Z,4904.00
2019-04-22T13:24:34.171Z,4912.00
2019-04-22T13:25:34.569Z,4912.00
2019-04-22T13:26:33.832Z,4904.00
2019-04-22T13:27:33.254Z,4908.00
2019-04-22T13:28:34.501Z,4912.00
2019-04-22T13:29:33.217Z,4912.00
2019-04-22T13:30:34.546Z,4920.00
2019-04-22T13:31:33.154Z,4924.00
2019-04-22T13:32:34.643Z,4924.00
2019-04-22T13:33:33.095Z,4924.00
2019-04-22T13:34:39.660Z,4932.00
2019-04-22T13:35:33.909Z,4952.00
2019-04-22T13:36:34.433Z,4944.00
2019-04-22T13:37:32.992Z,4952.00
2019-04-22T13:38:33.244Z,4944.00
2019-04-22T13:39:32.942Z,4940.00
2019-04-22T13:40:33.075Z,4952.00
2019-04-22T13:41:40.514Z,4972.00
2019-04-22T13:42:33.383Z,4976.00
2019-04-22T13:43:32.844Z,4972.00
2019-04-22T13:44:33.538Z,4964.00
2019-04-22T13:45:33.954Z,4960.00
2019-04-22T13:46:33.750Z,4968.00
2019-04-22T13:47:50.616Z,4968.00
2019-04-22T13:48:53.316Z,4952.00
2019-04-22T13:51:18.573Z,4928.00
2019-04-22T13:52:02.403Z,4932.00
2019-04-22T13:53:13.876Z,4940.00
2019-04-22T13:54:35.072Z,4940.00
2019-04-22T13:54:54.426Z,4940.00
2019-04-22T13:55:59.262Z,4972.00
2019-04-22T13:56:52.138Z,4976.00
2019-04-22T13:57:47.671Z,4976.00
2019-04-22T13:58:46.133Z,4984.00
2019-04-22T13:59:42.348Z,4996.00
2019-04-22T14:00:32.439Z,5012.00
2019-04-22T14:01:32.619Z,5024.00
2019-04-22T14:02:32.762Z,5032.00
2019-04-22T14:03:34.315Z,5036.00
2019-04-22T14:04:32.661Z,5028.00